Time;durP1;ratioP1;P1;durP2;ratioP2;P2;SDS_P1;SDS_P2;PMS_P1;PMS_P2;Temp;Humidity;BMP_temperature;BMP_pressure;BME280_temperature;BME280_humidity;BME280_pressure;Samples;Min_cycle;Max_cycle;Signal;HPM_P1;HPM_P2
2023/03/07 00:01:27;;;;;;;9.25;6.25;;;;;;;16.13;36.61;99215.16;5071948;28;20048;-67
2023/03/07 00:03:56;;;;;;;9.32;5.85;;;;;;;16.08;36.73;99204.00;5071905;28;20071;-67
2023/03/07 00:06:24;;;;;;;9.00;6.22;;;;;;;16.07;36.63;99205.84;5071869;28;20090;-68
2023/03/07 00:08:55;;;;;;;10.30;6.10;;;;;;;16.02;36.54;99203.63;5071887;28;20049;-67
2023/03/07 00:11:24;;;;;;;8.48;5.97;;;;;;;16.00;36.59;99205.59;5071875;28;20102;-68
2023/03/07 00:13:53;;;;;;;9.40;6.03;;;;;;;15.98;36.66;99202.22;5072057;28;20044;-67
2023/03/07 00:16:24;;;;;;;9.70;6.38;;;;;;;15.94;36.62;99206.22;5071732;28;20169;-68
2023/03/07 00:18:53;;;;;;;8.95;6.25;;;;;;;15.92;36.68;99197.47;5071794;28;20119;-67
2023/03/07 00:21:22;;;;;;;9.40;5.90;;;;;;;15.88;36.77;99201.44;5071618;28;20076;-68
2023/03/07 00:23:53;;;;;;;11.05;6.50;;;;;;;15.85;36.83;99212.50;5070822;28;20045;-68
2023/03/07 00:26:23;;;;;;;9.38;6.07;;;;;;;15.84;36.69;99210.81;5071665;28;20516;-68
2023/03/07 00:28:52;;;;;;;10.23;6.80;;;;;;;15.81;36.79;99221.00;5071825;28;20119;-68
2023/03/07 00:31:23;;;;;;;9.05;6.15;;;;;;;15.77;36.64;99220.47;5071813;28;20401;-68
2023/03/07 00:33:52;;;;;;;8.77;6.28;;;;;;;15.77;36.80;99217.78;5071727;28;20044;-67
2023/03/07 00:36:22;;;;;;;8.48;6.20;;;;;;;15.75;37.01;99219.78;5071620;28;20401;-68
2023/03/07 00:38:51;;;;;;;9.02;6.30;;;;;;;15.70;36.65;99208.63;5071527;28;20083;-68
2023/03/07 00:41:22;;;;;;;9.57;6.07;;;;;;;15.68;36.82;99210.63;5071505;28;20041;-68
2023/03/07 00:43:50;;;;;;;8.48;6.10;;;;;;;15.64;36.62;99206.56;5071704;28;20055;-68
2023/03/07 00:46:20;;;;;;;9.55;6.50;;;;;;;15.64;36.85;99201.19;5071520;28;20045;-69
2023/03/07 00:48:50;;;;;;;8.93;6.13;;;;;;;15.61;36.78;99204.16;5071694;28;20051;-68
2023/03/07 00:51:20;;;;;;;9.57;6.30;;;;;;;15.58;36.95;99205.25;5071424;28;20093;-68
2023/03/07 00:53:49;;;;;;;11.05;6.63;;;;;;;15.56;37.00;99201.03;5071431;28;20063;-66
2023/03/07 00:56:20;;;;;;;8.95;6.18;;;;;;;15.53;36.82;99193.25;5071209;28;20061;-68
2023/03/07 00:58:49;;;;;;;10.23;7.03;;;;;;;15.52;36.82;99196.94;5071440;28;20075;-69
2023/03/07 01:01:19;;;;;;;9.27;6.50;;;;;;;15.50;37.03;99196.25;5071285;28;20041;-69
2023/03/07 01:03:48;;;;;;;10.90;7.03;;;;;;;15.48;37.08;99198.25;5071325;28;20068;-68
2023/03/07 01:06:21;;;;;;;9.25;6.47;;;;;;;15.46;36.94;99196.56;5071300;28;20045;-68
2023/03/07 01:08:49;;;;;;;12.27;7.00;;;;;;;15.43;36.96;99191.47;5071176;28;20056;-69
2023/03/07 01:11:17;;;;;;;11.05;6.93;;;;;;;15.41;36.96;99190.78;5071352;28;20052;-69
2023/03/07 01:13:45;;;;;;;10.05;6.68;;;;;;;15.35;37.03;99179.78;5071243;28;20049;-69
2023/03/07 01:16:16;;;;;;;11.73;6.70;;;;;;;15.36;37.06;99189.53;5071247;28;20090;-68
2023/03/07 01:18:48;;;;;;;10.65;6.38;;;;;;;15.34;36.95;99197.72;5071223;28;20049;-69
2023/03/07 01:21:19;;;;;;;10.52;6.95;;;;;;;15.33;36.99;99187.13;5071142;28;20048;-68
2023/03/07 01:23:47;;;;;;;10.15;7.07;;;;;;;15.29;37.11;99183.91;5071126;28;20051;-67
2023/03/07 01:26:17;;;;;;;9.85;7.00;;;;;;;15.27;37.27;99180.53;5071355;28;20102;-67
2023/03/07 01:28:45;;;;;;;10.20;6.82;;;;;;;15.25;37.06;99165.53;5071180;28;20040;-67
2023/03/07 01:31:14;;;;;;;10.90;6.85;;;;;;;15.25;37.13;99168.22;5071105;28;20061;-68
2023/03/07 01:33:42;;;;;;;10.82;6.95;;;;;;;15.17;37.03;99164.44;5071053;28;20499;-67
2023/03/07 01:36:20;;;;;;;10.60;7.25;;;;;;;15.20;37.17;99176.72;5074253;28;20044;-67
2023/03/07 01:38:48;;;;;;;10.57;7.20;;;;;;;15.18;37.08;99186.78;5074431;28;20072;-68
2023/03/07 01:41:17;;;;;;;10.55;7.18;;;;;;;15.16;37.22;99183.41;5074557;28;20064;-68
2023/03/07 01:43:45;;;;;;;10.82;7.28;;;;;;;15.15;37.09;99187.06;5074662;28;20516;-69
2023/03/07 01:46:30;;;;;;;11.40;8.00;;;;;;;15.13;37.15;99181.00;5074455;28;20052;-68
2023/03/07 01:49:01;;;;;;;11.18;7.38;;;;;;;15.11;37.19;99188.34;5074477;28;20040;-68
2023/03/07 01:51:32;;;;;;;12.85;7.88;;;;;;;15.09;37.23;99176.91;5074263;28;20055;-69
2023/03/07 01:54:01;;;;;;;12.32;7.85;;;;;;;15.06;37.17;99170.00;5074477;28;20048;-69
2023/03/07 01:56:31;;;;;;;10.70;7.25;;;;;;;15.05;37.18;99170.13;5074297;28;20056;-69
2023/03/07 01:58:59;;;;;;;11.00;7.47;;;;;;;15.04;37.24;99173.81;5074158;28;20129;-69
2023/03/07 02:01:28;;;;;;;11.60;7.50;;;;;;;15.01;37.25;99174.13;5074284;28;20048;-68
2023/03/07 02:04:01;;;;;;;10.68;6.85;;;;;;;14.99;37.28;99174.28;5074145;28;20036;-68
2023/03/07 02:06:35;;;;;;;10.65;7.22;;;;;;;14.98;37.29;99166.38;5074125;28;20405;-68
2023/03/07 02:09:05;;;;;;;10.65;7.18;;;;;;;14.95;37.16;99163.94;5074042;28;20052;-68
2023/03/07 02:11:34;;;;;;;10.93;7.22;;;;;;;14.91;37.23;99157.19;5106054;28;20094;-68
2023/03/07 02:14:02;;;;;;;10.75;7.57;;;;;;;14.93;37.35;99160.56;5073967;28;20527;-68
2023/03/07 02:16:31;;;;;;;11.55;7.18;;;;;;;14.89;37.26;99150.13;5073860;28;20536;-69
2023/03/07 02:19:01;;;;;;;11.10;7.57;;;;;;;14.88;37.31;99155.66;5073926;28;20158;-68
2023/03/07 02:21:39;;;;;;;11.48;7.45;;;;;;;14.87;37.32;99156.66;5073778;28;20044;-69
2023/03/07 02:24:15;;;;;;;10.40;7.60;;;;;;;14.85;37.29;99147.88;5073796;28;20079;-67
2023/03/07 02:26:46;;;;;;;12.32;7.50;;;;;;;14.82;37.26;99150.88;5073784;28;20409;-68
2023/03/07 02:29:15;;;;;;;10.50;7.25;;;;;;;14.81;37.36;99150.00;5073819;28;20492;-68
2023/03/07 02:31:43;;;;;;;12.38;7.57;;;;;;;14.79;37.37;99159.22;5073548;28;20126;-69
2023/03/07 02:34:23;;;;;;;10.32;7.22;;;;;;;14.76;37.22;99144.22;5073612;28;20044;-69
2023/03/07 02:36:57;;;;;;;11.50;7.43;;;;;;;14.76;37.42;99143.38;5073454;28;20109;-69
2023/03/07 02:39:29;;;;;;;12.25;7.78;;;;;;;14.73;37.42;99147.22;5073412;28;20049;-69
2023/03/07 02:42:02;;;;;;;12.70;7.50;;;;;;;14.74;37.48;99156.09;5073384;28;20382;-67
2023/03/07 02:44:30;;;;;;;11.60;7.72;;;;;;;14.71;37.34;99162.63;5073411;28;20051;-69
2023/03/07 02:46:58;;;;;;;12.13;7.82;;;;;;;14.70;37.37;99166.28;5072357;28;20044;-69
2023/03/07 02:49:26;;;;;;;11.45;7.88;;;;;;;14.69;37.44;99159.25;5073233;28;20128;-68
2023/03/07 02:51:59;;;;;;;11.07;7.30;;;;;;;14.68;37.35;99160.22;5073263;28;20109;-68
2023/03/07 02:54:27;;;;;;;12.02;7.43;;;;;;;14.66;37.50;99159.50;5073051;28;20083;-69
2023/03/07 02:56:56;;;;;;;12.02;7.95;;;;;;;14.64;37.39;99156.13;5073113;28;20094;-67
2023/03/07 02:59:26;;;;;;;11.52;7.70;;;;;;;14.63;37.49;99159.81;5072942;28;20052;-69
2023/03/07 03:01:54;;;;;;;14.95;8.40;;;;;;;14.60;37.54;99160.09;5072905;28;20048;-68
2023/03/07 03:04:22;;;;;;;10.07;7.10;;;;;;;14.59;37.63;99166.47;5072937;28;20644;-69
2023/03/07 03:06:50;;;;;;;12.40;7.82;;;;;;;14.57;37.54;99171.97;5072939;28;20060;-69
2023/03/07 03:09:19;;;;;;;11.13;7.55;;;;;;;14.53;37.52;99158.97;5072874;28;20063;-69
2023/03/07 03:11:47;;;;;;;11.95;7.65;;;;;;;14.55;37.67;99159.69;5072729;28;20066;-69
2023/03/07 03:14:15;;;;;;;11.18;7.63;;;;;;;14.54;37.65;99158.00;5072686;28;20045;-69
2023/03/07 03:16:45;;;;;;;12.13;8.38;;;;;;;14.52;37.53;99159.97;5072643;28;20086;-67
2023/03/07 03:19:13;;;;;;;11.40;7.72;;;;;;;14.49;37.64;99152.22;5072729;28;20047;-69
2023/03/07 03:21:41;;;;;;;13.55;8.43;;;;;;;14.49;37.62;99153.06;5072483;28;20048;-68
2023/03/07 03:24:10;;;;;;;11.10;7.53;;;;;;;14.42;37.63;99145.69;5072563;28;20079;-68
2023/03/07 03:26:38;;;;;;;12.52;8.50;;;;;;;14.47;37.63;99154.19;5072473;28;20048;-68
2023/03/07 03:29:07;;;;;;;13.40;7.95;;;;;;;14.45;37.51;99161.53;5072457;28;20604;-68
2023/03/07 03:31:35;;;;;;;11.13;7.60;;;;;;;14.44;37.54;99162.50;5072227;28;20041;-69
2023/03/07 03:34:05;;;;;;;12.95;7.78;;;;;;;14.43;37.66;99158.13;5072318;28;20044;-68
2023/03/07 03:36:35;;;;;;;11.45;8.23;;;;;;;14.42;37.76;99162.63;5072313;28;20560;-69
2023/03/07 03:39:09;;;;;;;11.50;8.02;;;;;;;14.39;37.76;99149.53;5072017;28;20084;-69
2023/03/07 03:41:37;;;;;;;11.88;7.60;;;;;;;14.39;37.78;99156.72;5072275;28;20098;-69
2023/03/07 03:44:05;;;;;;;12.38;8.48;;;;;;;14.36;37.53;99155.16;5072127;28;20110;-69
2023/03/07 03:46:34;;;;;;;12.38;8.57;;;;;;;14.36;37.56;99146.25;5072114;28;20048;-69
2023/03/07 03:49:04;;;;;;;10.73;7.95;;;;;;;14.36;37.77;99151.63;5072423;28;20128;-69
2023/03/07 03:51:32;;;;;;;13.57;8.52;;;;;;;14.32;37.75;99146.56;5071972;28;20044;-69
2023/03/07 03:54:00;;;;;;;13.35;8.27;;;;;;;14.31;37.62;99141.34;5072305;28;20094;-68
2023/03/07 03:56:29;;;;;;;11.27;7.65;;;;;;;14.31;37.83;99149.38;5072005;28;20044;-69
2023/03/07 03:59:00;;;;;;;14.05;9.00;;;;;;;14.30;37.78;99142.31;5071845;28;20044;-69
2023/03/07 04:01:29;;;;;;;12.55;8.18;;;;;;;14.27;37.71;99148.81;5071871;28;20094;-69
2023/03/07 04:03:58;;;;;;;12.20;8.02;;;;;;;14.28;37.80;99149.66;5072031;28;20437;-69
2023/03/07 04:06:30;;;;;;;12.80;8.13;;;;;;;14.24;37.86;99149.09;5071849;28;20044;-68
2023/03/07 04:08:58;;;;;;;11.65;8.18;;;;;;;14.24;37.71;99143.72;5071884;28;20086;-69
2023/03/07 04:11:27;;;;;;;12.55;8.10;;;;;;;14.24;37.90;99149.09;5071670;28;20051;-69
2023/03/07 04:13:55;;;;;;;12.73;8.25;;;;;;;14.22;37.84;99143.03;5071842;28;20048;-69
2023/03/07 04:16:23;;;;;;;12.38;8.27;;;;;;;14.21;37.84;99152.06;5071886;28;20051;-69
2023/03/07 04:18:52;;;;;;;14.15;8.57;;;;;;;14.20;37.65;99155.75;5071737;28;20051;-68
2023/03/07 04:21:21;;;;;;;12.65;8.15;;;;;;;14.17;37.96;99147.13;5072023;28;20048;-68
2023/03/07 04:23:54;;;;;;;10.95;7.97;;;;;;;14.16;37.82;99135.53;5071883;28;20055;-69
2023/03/07 04:26:22;;;;;;;12.57;8.60;;;;;;;14.17;37.81;99152.47;5071817;28;20106;-69
2023/03/07 04:28:50;;;;;;;12.90;8.70;;;;;;;14.14;37.71;99156.31;5071784;28;20099;-69
2023/03/07 04:31:23;;;;;;;12.98;8.75;;;;;;;14.13;37.83;99151.09;5071637;28;20056;-68
2023/03/07 04:33:53;;;;;;;11.85;8.48;;;;;;;14.14;37.82;99160.81;5070278;28;20052;-69
2023/03/07 04:36:22;;;;;;;12.90;8.20;;;;;;;14.13;37.90;99159.97;5071756;28;20045;-68
2023/03/07 04:38:52;;;;;;;12.90;8.73;;;;;;;14.13;37.84;99165.34;5071598;28;20102;-69
2023/03/07 04:41:22;;;;;;;12.20;8.15;;;;;;;14.15;38.02;99159.81;5071956;28;20049;-70
2023/03/07 04:43:50;;;;;;;11.88;7.85;;;;;;;14.19;37.97;99164.78;5071582;28;20047;-68
2023/03/07 04:46:19;;;;;;;11.48;8.18;;;;;;;14.26;38.22;99165.03;5071538;28;20044;-68
2023/03/07 04:48:48;;;;;;;11.82;8.00;;;;;;;14.37;38.16;99172.94;5071791;28;20055;-69
2023/03/07 04:51:16;;;;;;;10.80;7.22;;;;;;;14.46;38.25;99169.44;5071470;28;20040;-69
2023/03/07 04:53:44;;;;;;;12.15;8.15;;;;;;;14.56;37.96;99166.72;5071400;28;20040;-68
2023/03/07 04:56:15;;;;;;;11.85;7.82;;;;;;;14.67;38.04;99165.72;5071420;28;20401;-68
2023/03/07 04:58:44;;;;;;;11.52;7.75;;;;;;;14.78;37.83;99166.44;5071417;28;20489;-68
2023/03/07 05:01:12;;;;;;;11.80;7.53;;;;;;;14.84;37.97;99165.81;5071205;28;20049;-69
2023/03/07 05:03:40;;;;;;;11.50;7.40;;;;;;;14.99;37.73;99168.06;5071361;28;20063;-68
2023/03/07 05:06:12;;;;;;;11.50;7.75;;;;;;;15.11;37.56;99172.25;5071286;28;20416;-68
2023/03/07 05:08:40;;;;;;;9.90;7.40;;;;;;;15.22;37.53;99171.22;5071280;28;20056;-67
2023/03/07 05:11:08;;;;;;;12.23;7.85;;;;;;;15.32;37.60;99172.84;5074652;28;20690;-68
2023/03/07 05:13:38;;;;;;;12.00;7.30;;;;;;;15.41;37.43;99171.13;5075063;28;20056;-68
2023/03/07 05:16:07;;;;;;;11.30;7.40;;;;;;;15.53;37.35;99169.06;5075309;28;20504;-67
2023/03/07 05:18:35;;;;;;;9.55;7.18;;;;;;;15.63;37.30;99169.88;5074902;28;20060;-67
2023/03/07 05:21:03;;;;;;;11.38;7.30;;;;;;;15.74;37.24;99167.03;5074839;28;20074;-67
2023/03/07 05:23:31;;;;;;;10.30;7.22;;;;;;;15.85;37.13;99160.56;5074826;28;20102;-68
2023/03/07 05:25:59;;;;;;;11.98;7.80;;;;;;;15.96;37.05;99171.09;5074792;28;20048;-68
2023/03/07 05:28:27;;;;;;;9.98;7.25;;;;;;;16.04;37.00;99168.50;5074693;28;20044;-68
2023/03/07 05:30:57;;;;;;;10.90;7.40;;;;;;;16.16;36.99;99172.66;5074597;28;20049;-67
2023/03/07 05:33:25;;;;;;;12.48;7.35;;;;;;;16.27;36.91;99179.63;5074480;28;20489;-68
2023/03/07 05:35:54;;;;;;;10.80;7.45;;;;;;;16.33;36.95;99173.66;5074600;28;20044;-67
2023/03/07 05:38:22;;;;;;;10.68;7.70;;;;;;;16.40;36.80;99179.22;5074523;28;20090;-68
2023/03/07 05:40:50;;;;;;;10.77;7.28;;;;;;;16.43;36.71;99173.56;5074469;28;20052;-68
2023/03/07 05:43:19;;;;;;;10.20;7.10;;;;;;;16.44;36.77;99178.78;5074696;28;20053;-67
2023/03/07 05:45:47;;;;;;;10.55;7.53;;;;;;;16.43;36.76;99174.41;5074468;28;20055;-67
2023/03/07 05:48:20;;;;;;;11.70;7.68;;;;;;;16.42;36.77;99183.47;5074360;28;20110;-67
2023/03/07 05:50:48;;;;;;;12.13;7.90;;;;;;;16.41;36.86;99176.41;5074402;28;20044;-69
2023/03/07 05:53:16;;;;;;;10.82;7.72;;;;;;;16.38;36.87;99178.56;5074169;28;20040;-68
2023/03/07 05:55:44;;;;;;;12.35;7.80;;;;;;;16.36;36.82;99178.72;5074252;28;20046;-68
2023/03/07 05:58:12;;;;;;;12.63;8.00;;;;;;;16.34;36.82;99183.41;5074188;28;20052;-67
2023/03/07 06:00:41;;;;;;;10.95;7.57;;;;;;;16.29;36.93;99183.84;5073469;28;20664;-68
2023/03/07 06:03:09;;;;;;;12.77;8.00;;;;;;;16.26;36.91;99183.31;5074047;28;20168;-67
2023/03/07 06:05:38;;;;;;;11.50;7.95;;;;;;;16.26;36.93;99191.41;5074131;28;20044;-69
2023/03/07 06:08:07;;;;;;;13.23;8.40;;;;;;;16.23;36.88;99195.25;5074124;28;20446;-69
2023/03/07 06:10:36;;;;;;;11.23;7.38;;;;;;;16.18;36.88;99192.16;5073685;28;20110;-67
2023/03/07 06:13:04;;;;;;;12.40;8.35;;;;;;;16.15;36.98;99197.00;5073870;28;20044;-67
2023/03/07 06:15:32;;;;;;;13.40;8.57;;;;;;;16.12;36.95;99202.72;5073779;28;20124;-69
2023/03/07 06:18:00;;;;;;;12.52;7.93;;;;;;;16.08;37.01;99204.84;5073973;28;20052;-69
2023/03/07 06:20:28;;;;;;;11.65;8.15;;;;;;;16.05;36.97;99210.53;5075030;28;20052;-68
2023/03/07 06:23:01;;;;;;;13.23;8.30;;;;;;;16.01;37.14;99215.34;5074692;28;20511;-67
2023/03/07 06:25:29;;;;;;;12.68;7.78;;;;;;;15.96;37.22;99214.97;5073939;28;20048;-69
2023/03/07 06:28:00;;;;;;;12.82;8.40;;;;;;;15.94;37.29;99216.97;5073735;28;20484;-69
2023/03/07 06:30:28;;;;;;;11.68;7.97;;;;;;;15.90;37.18;99220.94;5073364;28;20071;-70
2023/03/07 06:32:57;;;;;;;12.35;8.27;;;;;;;15.86;37.28;99219.56;5072985;28;20036;-68
2023/03/07 06:35:25;;;;;;;13.93;8.82;;;;;;;15.84;37.44;99218.03;5073104;28;20045;-69
2023/03/07 06:37:56;;;;;;;12.55;8.82;;;;;;;15.76;37.52;99210.72;5073045;28;20048;-69
2023/03/07 06:40:27;;;;;;;14.85;9.00;;;;;;;15.77;37.38;99216.94;5072817;28;20083;-69
2023/03/07 06:42:55;;;;;;;12.60;8.55;;;;;;;15.73;37.44;99219.09;5072924;28;20497;-70
2023/03/07 06:45:23;;;;;;;12.82;8.65;;;;;;;15.70;37.31;99219.38;5073245;28;20041;-69
2023/03/07 06:47:52;;;;;;;14.23;9.13;;;;;;;15.69;37.32;99217.69;5073161;28;20041;-70
2023/03/07 06:50:20;;;;;;;14.15;9.20;;;;;;;15.65;37.26;99221.69;5072981;28;20045;-70
2023/03/07 06:53:01;;;;;;;15.73;10.13;;;;;;;15.63;37.23;99218.28;5072741;28;20046;-71
2023/03/07 06:55:31;;;;;;;11.77;8.48;;;;;;;15.60;37.14;99218.56;5072916;28;20052;-70
2023/03/07 06:57:59;;;;;;;14.18;9.32;;;;;;;15.57;37.17;99219.69;5073101;28;20049;-71
2023/03/07 07:00:28;;;;;;;12.95;9.27;;;;;;;15.54;37.30;99224.50;5072918;28;20126;-69
2023/03/07 07:02:56;;;;;;;14.13;9.13;;;;;;;15.52;37.27;99230.03;5072923;28;20444;-70
2023/03/07 07:05:25;;;;;;;13.98;9.52;;;;;;;15.46;37.32;99222.59;5062203;28;20564;-71
2023/03/07 07:07:53;;;;;;;11.00;8.07;;;;;;;15.46;37.33;99225.28;5072869;28;20071;-71
2023/03/07 07:10:21;;;;;;;15.20;9.00;;;;;;;15.45;37.47;99221.75;5072625;28;20044;-70
2023/03/07 07:12:53;;;;;;;13.50;9.23;;;;;;;15.43;37.37;99214.81;5064044;28;20045;-69
2023/03/07 07:15:21;;;;;;;14.35;9.30;;;;;;;15.38;37.52;99211.72;5052463;28;20103;-70
2023/03/07 07:17:50;;;;;;;13.27;8.70;;;;;;;15.40;37.56;99224.00;5052673;28;20049;-68
2023/03/07 07:20:19;;;;;;;13.52;8.95;;;;;;;15.37;37.47;99229.69;5052686;28;20044;-70
2023/03/07 07:22:47;;;;;;;12.85;8.45;;;;;;;15.35;37.63;99225.47;5052605;28;20417;-70
2023/03/07 07:25:15;;;;;;;12.32;8.77;;;;;;;15.32;37.65;99229.28;5052546;28;20072;-68
2023/03/07 07:27:43;;;;;;;13.32;8.98;;;;;;;15.31;37.58;99238.34;5052694;28;20041;-69
2023/03/07 07:30:14;;;;;;;13.57;9.32;;;;;;;15.28;37.81;99229.72;5053094;28;20490;-70
2023/03/07 07:32:43;;;;;;;13.43;9.20;;;;;;;15.27;37.66;99233.41;5052489;28;20049;-70
2023/03/07 07:35:12;;;;;;;13.27;8.80;;;;;;;15.26;37.61;99232.56;5052555;28;20069;-67
2023/03/07 07:37:40;;;;;;;13.57;9.32;;;;;;;15.23;37.66;99232.84;5056672;28;20064;-70
2023/03/07 07:40:10;;;;;;;13.68;8.98;;;;;;;15.21;37.64;99237.53;5060326;28;20056;-68
2023/03/07 07:42:39;;;;;;;13.68;8.82;;;;;;;15.20;37.77;99234.97;5053795;28;20041;-68
2023/03/07 07:45:08;;;;;;;14.57;9.10;;;;;;;15.18;37.78;99237.81;5051968;28;20044;-70
2023/03/07 07:47:37;;;;;;;15.15;9.57;;;;;;;15.15;37.70;99233.59;5064767;28;20074;-69
2023/03/07 07:50:06;;;;;;;14.30;9.32;;;;;;;15.14;37.63;99239.09;5069994;28;20071;-69
2023/03/07 07:52:34;;;;;;;13.85;9.10;;;;;;;15.14;37.88;99241.78;5071177;28;20123;-70
2023/03/07 07:55:02;;;;;;;16.52;9.40;;;;;;;15.09;37.83;99236.00;5071694;28;20040;-70
2023/03/07 07:57:31;;;;;;;14.38;9.18;;;;;;;15.12;37.92;99239.25;5070831;28;20044;-69
2023/03/07 07:59:59;;;;;;;16.33;9.63;;;;;;;15.13;37.97;99237.41;5071744;28;20115;-70
2023/03/07 08:02:27;;;;;;;15.20;9.50;;;;;;;15.16;38.06;99237.13;5071649;28;20044;-70
2023/03/07 08:04:57;;;;;;;14.77;9.48;;;;;;;15.18;37.93;99238.66;5071957;28;20083;-70
2023/03/07 08:07:25;;;;;;;14.25;8.98;;;;;;;15.24;37.90;99234.53;5071858;28;20404;-69
2023/03/07 08:09:53;;;;;;;14.90;9.45;;;;;;;15.27;37.86;99239.63;5071840;28;20374;-69
2023/03/07 08:12:21;;;;;;;12.85;9.05;;;;;;;15.27;37.89;99234.25;5071876;28;20396;-69
2023/03/07 08:14:52;;;;;;;14.43;9.40;;;;;;;15.31;37.86;99242.84;5071821;28;20132;-70
2023/03/07 08:17:20;;;;;;;14.63;9.02;;;;;;;15.32;37.69;99233.81;5071659;28;20451;-69
2023/03/07 08:19:48;;;;;;;15.15;9.55;;;;;;;15.33;37.81;99232.81;5071516;28;20044;-69
2023/03/07 08:22:18;;;;;;;13.40;8.57;;;;;;;15.33;37.73;99239.03;5071501;28;20087;-69
2023/03/07 08:24:46;;;;;;;12.80;8.65;;;;;;;15.33;37.76;99241.72;5071416;28;20071;-69
2023/03/07 08:27:14;;;;;;;12.05;8.50;;;;;;;15.30;37.80;99233.94;5071586;28;20448;-70
2023/03/07 08:29:42;;;;;;;15.43;9.70;;;;;;;15.33;37.63;99244.41;5071616;28;20123;-70
2023/03/07 08:32:10;;;;;;;13.65;8.65;;;;;;;15.31;37.67;99232.97;5071478;28;20128;-69
2023/03/07 08:34:39;;;;;;;12.55;8.60;;;;;;;15.31;37.51;99241.00;5071353;28;20041;-69
2023/03/07 08:37:07;;;;;;;12.32;8.75;;;;;;;15.31;37.67;99235.66;5071403;28;20409;-69
2023/03/07 08:39:36;;;;;;;14.35;8.95;;;;;;;15.31;37.63;99246.38;5071334;28;20062;-68
2023/03/07 08:42:05;;;;;;;15.18;8.73;;;;;;;15.29;37.70;99244.84;5071457;28;20051;-69
2023/03/07 08:44:34;;;;;;;14.73;8.85;;;;;;;15.29;37.64;99242.16;5072424;28;20087;-69
2023/03/07 08:47:02;;;;;;;16.13;8.40;;;;;;;15.27;37.57;99250.38;5075423;28;20128;-69
2023/03/07 08:49:30;;;;;;;13.88;8.88;;;;;;;15.27;37.54;99245.00;5075571;28;20516;-69
2023/03/07 08:51:58;;;;;;;14.10;8.52;;;;;;;15.26;37.47;99251.38;5075398;28;20106;-69
2023/03/07 08:54:27;;;;;;;14.45;8.85;;;;;;;15.26;37.70;99248.69;5075280;28;20136;-69
2023/03/07 08:56:57;;;;;;;15.70;8.75;;;;;;;15.26;37.57;99253.22;5075291;28;20052;-69
2023/03/07 08:59:25;;;;;;;15.48;8.23;;;;;;;15.24;37.72;99249.81;5075339;28;20044;-69
2023/03/07 09:01:54;;;;;;;14.48;8.85;;;;;;;15.23;37.70;99257.00;5075579;28;20052;-69
2023/03/07 09:04:24;;;;;;;19.52;8.68;;;;;;;15.22;37.63;99249.94;5075629;28;20118;-70
2023/03/07 09:06:52;;;;;;;13.70;8.63;;;;;;;15.21;37.72;99248.25;5075078;28;20123;-69
2023/03/07 09:09:20;;;;;;;15.80;8.35;;;;;;;15.17;37.72;99250.41;5074866;28;20044;-69
2023/03/07 09:11:48;;;;;;;16.35;8.50;;;;;;;15.20;37.77;99254.63;5074823;28;20040;-70
2023/03/07 09:14:18;;;;;;;12.40;8.07;;;;;;;15.20;37.66;99248.41;5074697;28;20486;-69
2023/03/07 09:16:46;;;;;;;15.50;8.10;;;;;;;15.18;37.76;99249.41;5075006;28;20379;-69
2023/03/07 09:19:14;;;;;;;13.05;8.55;;;;;;;15.16;37.65;99247.88;5074760;28;20044;-69
2023/03/07 09:21:42;;;;;;;14.93;8.63;;;;;;;15.16;37.75;99253.25;5074598;28;20105;-69
2023/03/07 09:24:10;;;;;;;14.00;7.95;;;;;;;15.14;37.70;99255.19;5074626;28;20432;-70
2023/03/07 09:26:38;;;;;;;13.18;8.60;;;;;;;15.14;37.71;99252.50;5074541;28;20063;-69
2023/03/07 09:29:07;;;;;;;14.95;8.45;;;;;;;15.13;37.71;99248.13;5074698;28;20066;-70
2023/03/07 09:31:36;;;;;;;14.85;7.85;;;;;;;15.12;37.69;99251.81;5074629;28;20048;-69
2023/03/07 09:34:05;;;;;;;14.45;8.43;;;;;;;15.11;37.63;99250.13;5074594;28;20041;-70
2023/03/07 09:36:33;;;;;;;13.93;8.30;;;;;;;15.09;37.70;99241.38;5074288;28;20053;-70
2023/03/07 09:39:03;;;;;;;15.30;8.45;;;;;;;15.08;37.71;99247.75;5073718;28;20126;-69
2023/03/07 09:41:52;;;;;;;13.38;7.90;;;;;;;15.07;37.67;99244.22;5072911;28;20485;-68
2023/03/07 09:44:30;;;;;;;12.63;7.43;;;;;;;15.07;37.60;99254.13;5073122;28;20105;-69
2023/03/07 09:47:17;;;;;;;12.57;7.90;;;;;;;15.06;37.51;99245.22;5073044;28;20490;-70
2023/03/07 09:49:47;;;;;;;10.93;7.05;;;;;;;15.04;37.71;99238.25;5073341;28;20048;-69
2023/03/07 09:52:18;;;;;;;13.50;7.80;;;;;;;15.03;37.64;99241.94;5073019;28;20127;-69
2023/03/07 09:54:52;;;;;;;13.30;7.20;;;;;;;15.03;37.54;99244.63;5072921;28;20493;-69
2023/03/07 09:57:24;;;;;;;13.73;7.53;;;;;;;15.02;37.60;99251.00;5072941;28;20095;-69
2023/03/07 09:59:57;;;;;;;13.20;7.65;;;;;;;15.02;37.26;99238.41;5073165;28;20044;-69
2023/03/07 10:02:31;;;;;;;11.57;7.40;;;;;;;15.01;37.63;99241.25;5073062;28;20076;-69
2023/03/07 10:05:11;;;;;;;13.85;7.47;;;;;;;14.99;37.61;99237.88;5072990;28;20040;-68
2023/03/07 10:07:39;;;;;;;11.82;7.05;;;;;;;14.99;37.64;99237.88;5072920;28;20080;-69
2023/03/07 10:10:17;;;;;;;11.55;7.30;;;;;;;15.00;37.39;99243.09;5072697;28;20044;-69
2023/03/07 10:13:07;;;;;;;11.45;7.05;;;;;;;15.02;37.39;99242.94;5072773;28;20048;-69
2023/03/07 10:15:44;;;;;;;12.23;7.22;;;;;;;15.03;37.29;99255.38;5072728;28;20052;-69
2023/03/07 10:18:27;;;;;;;12.93;7.38;;;;;;;15.03;37.38;99248.16;5072645;28;20421;-69
2023/03/07 10:21:03;;;;;;;13.23;7.30;;;;;;;15.05;37.33;99256.06;5072884;28;20066;-69
2023/03/07 10:23:46;;;;;;;12.02;7.05;;;;;;;15.05;37.27;99256.06;5072890;28;20093;-70
2023/03/07 10:26:20;;;;;;;10.05;6.65;;;;;;;15.05;36.90;99245.31;5072718;28;20052;-69
2023/03/07 10:28:49;;;;;;;10.65;7.25;;;;;;;15.06;37.12;99245.22;5072490;28;20048;-70
2023/03/07 10:31:24;;;;;;;12.38;6.50;;;;;;;15.07;37.13;99246.91;5072805;28;20049;-70
2023/03/07 10:33:54;;;;;;;10.60;6.90;;;;;;;15.08;36.97;99245.06;5072530;28;20072;-69
2023/03/07 10:36:33;;;;;;;12.07;6.43;;;;;;;15.09;36.95;99249.44;5072504;28;20040;-69
2023/03/07 10:39:06;;;;;;;9.93;6.18;;;;;;;15.10;37.05;99248.44;5032360;28;1144436;-70
2023/03/07 10:41:35;;;;;;;11.05;6.30;;;;;;;15.09;36.72;99244.06;5073436;28;20075;-70
2023/03/07 10:44:03;;;;;;;9.48;6.28;;;;;;;15.11;36.65;99247.44;5073391;28;20048;-68
2023/03/07 10:46:34;;;;;;;9.25;5.57;;;;;;;15.08;36.63;99237.00;5073497;28;20051;-69
2023/03/07 10:49:14;;;;;;;9.00;5.40;;;;;;;15.10;36.77;99235.00;5073354;28;20377;-69
2023/03/07 10:51:53;;;;;;;9.68;6.05;;;;;;;15.09;36.77;99234.16;5073103;28;20048;-69
2023/03/07 10:54:24;;;;;;;8.90;5.68;;;;;;;15.11;36.79;99225.97;5073212;28;20048;-69
2023/03/07 10:57:06;;;;;;;9.05;5.25;;;;;;;15.10;36.82;99214.38;5073095;28;20109;-69
2023/03/07 10:59:36;;;;;;;10.02;6.00;;;;;;;15.11;36.74;99224.13;5073200;28;20449;-69
2023/03/07 11:02:31;;;;;;;8.48;5.45;;;;;;;15.11;36.97;99212.53;5072710;28;20045;-69
2023/03/07 11:05:02;;;;;;;8.70;5.68;;;;;;;15.11;36.97;99201.78;5072817;28;20055;-69
2023/03/07 11:07:33;;;;;;;9.82;5.72;;;;;;;15.13;37.07;99199.78;5072165;28;20056;-69
2023/03/07 11:10:22;;;;;;;8.38;5.20;;;;;;;15.12;36.96;99193.56;5073078;28;20391;-70
2023/03/07 11:12:50;;;;;;;8.40;5.07;;;;;;;15.14;37.19;99201.47;5072766;28;20048;-70
2023/03/07 11:15:23;;;;;;;8.02;4.95;;;;;;;15.13;36.87;99197.09;5072744;28;20055;-70
2023/03/07 11:17:52;;;;;;;7.88;4.75;;;;;;;15.12;36.77;99193.56;5072746;28;20044;-70
2023/03/07 11:20:24;;;;;;;7.78;4.80;;;;;;;15.14;36.75;99185.38;5073025;28;20048;-70
2023/03/07 11:23:14;;;;;;;7.50;5.18;;;;;;;15.08;36.75;99176.09;5072614;28;20048;-69
2023/03/07 11:25:43;;;;;;;7.30;4.38;;;;;;;15.13;36.74;99172.94;5072729;28;20048;-69
2023/03/07 11:28:26;;;;;;;7.60;4.88;;;;;;;15.12;36.68;99157.81;5072720;28;20537;-69
2023/03/07 11:31:05;;;;;;;8.73;5.30;;;;;;;15.12;36.65;99157.81;5072681;28;20102;-68
2023/03/07 11:33:47;;;;;;;7.60;4.70;;;;;;;15.10;36.67;99157.97;5072349;28;20123;-68
2023/03/07 11:36:31;;;;;;;8.60;5.28;;;;;;;15.10;36.66;99147.22;5072226;28;20090;-70
2023/03/07 11:39:02;;;;;;;;;;;;;;;15.11;36.68;99140.00;5072619;28;20165;-69
2023/03/07 11:41:35;;;;;;;7.32;4.70;;;;;;;15.11;36.65;99137.31;5072271;28;19943;-69